Time;durP1;ratioP1;P1;durP2;ratioP2;P2;SDS_P1;SDS_P2;PMS_P1;PMS_P2;Temp;Humidity;BMP_temperature;BMP_pressure;BME280_temperature;BME280_humidity;BME280_pressure;Samples;Min_cycle;Max_cycle;Signal;HPM_P1;HPM_P2
2023/12/23 00:01:08;;;;;;;;;;;12.10;50.30;;;12.24;53.33;99738.16;5073830;28;20014;-33
2023/12/23 00:03:36;;;;;;;;;;;12.10;50.40;;;12.19;53.57;99744.31;5073038;28;19925;-34
2023/12/23 00:06:04;;;;;;;;;;;12.00;50.30;;;12.19;54.09;99761.88;5073317;28;20355;-35
2023/12/23 00:08:32;;;;;;;;;;;12.00;50.40;;;12.18;53.40;99772.66;5073036;28;19928;-39
2023/12/23 00:11:00;;;;;;;;;;;12.00;50.40;;;12.16;53.64;99784.13;5068395;28;20395;-33
2023/12/23 00:13:28;;;;;;;;;;;12.00;50.40;;;12.15;54.05;99782.34;5074030;28;19925;-33
2023/12/23 00:15:56;;;;;;;;;;;12.00;50.40;;;12.15;54.03;99787.38;5073224;28;20055;-40
2023/12/23 00:18:25;;;;;;;;;;;11.90;50.40;;;12.13;53.74;99791.34;5073320;28;19924;-33
2023/12/23 00:20:53;;;;;;;;;;;12.00;50.40;;;12.15;53.18;99797.41;5073490;28;19939;-35
2023/12/23 00:23:22;;;;;;;;;;;12.00;50.40;;;12.14;53.42;99798.16;5079510;28;19928;-34
2023/12/23 00:25:50;;;;;;;;;;;12.00;50.40;;;12.16;53.54;99802.63;5086153;28;19924;-35
2023/12/23 00:28:18;;;;;;;;;;;12.00;50.40;;;12.20;52.77;99791.31;5087653;28;20296;-35
2023/12/23 00:30:45;;;;;;;;;;;12.00;50.30;;;12.25;53.37;99800.22;5086581;28;20059;-36
2023/12/23 00:33:13;;;;;;;;;;;12.00;50.30;;;12.25;52.86;99805.25;5080874;28;19924;-40
2023/12/23 00:35:43;;;;;;;;;;;12.10;50.30;;;12.29;53.68;99802.34;5087432;28;20415;-34
2023/12/23 00:38:11;;;;;;;;;;;12.10;50.30;;;12.26;53.35;99797.91;5083730;28;19924;-33
2023/12/23 00:40:39;;;;;;;;;;;12.10;50.20;;;12.32;52.65;99807.72;5077832;28;20333;-33
2023/12/23 00:43:07;;;;;;;;;;;12.10;50.20;;;12.34;53.28;99812.16;5077732;28;20316;-34
2023/12/23 00:45:35;;;;;;;;;;;12.20;50.20;;;12.38;53.34;99804.25;5077523;28;20015;-36
2023/12/23 00:48:03;;;;;;;;;;;12.20;50.20;;;12.40;53.74;99802.78;5076790;28;19951;-33
2023/12/23 00:50:31;;;;;;;;;;;12.20;50.10;;;12.44;52.83;99806.53;5077135;28;19972;-35
2023/12/23 00:53:02;;;;;;;;;;;12.20;50.10;;;12.48;52.95;99801.09;5073937;28;19925;-33
2023/12/23 00:55:30;;;;;;;;;;;12.20;50.10;;;12.52;53.04;99803.22;5073099;28;19931;-34
2023/12/23 00:57:58;;;;;;;;;;;12.30;50.00;;;12.53;52.41;99794.94;5076158;28;19931;-35
2023/12/23 01:00:26;;;;;;;;;;;12.40;49.90;;;12.59;52.65;99790.59;5076377;28;20028;-35
2023/12/23 01:02:54;;;;;;;;;;;12.40;49.70;;;12.69;52.15;99808.47;5076996;28;19930;-35
2023/12/23 01:05:22;;;;;;;;;;;12.50;49.60;;;12.70;52.23;99800.19;5077059;28;19947;-38
2023/12/23 01:07:50;;;;;;;;;;;12.50;49.50;;;12.70;52.85;99794.28;5075840;28;19931;-37
2023/12/23 01:10:22;;;;;;;;;;;12.60;49.50;;;12.75;51.73;99809.13;5076946;28;19971;-34
2023/12/23 01:12:50;;;;;;;;;;;12.60;49.50;;;12.77;52.43;99807.66;5076671;28;20241;-33
2023/12/23 01:15:18;;;;;;;;;;;12.60;49.40;;;12.79;51.95;99806.19;5076671;28;19932;-33
2023/12/23 01:17:46;;;;;;;;;;;12.60;49.30;;;12.76;52.05;99795.84;5075935;28;20001;-33
2023/12/23 01:20:14;;;;;;;;;;;12.60;49.30;;;12.73;52.01;99805.53;5076798;28;19982;-33
2023/12/23 01:22:42;;;;;;;;;;;12.60;49.30;;;12.73;52.02;99805.53;5076634;28;19928;-33
2023/12/23 01:25:10;;;;;;;;;;;12.60;49.40;;;12.69;52.53;99803.44;5077411;28;19924;-31
2023/12/23 01:27:39;;;;;;;;;;;12.50;49.40;;;12.65;52.53;99811.34;5076381;28;20019;-34
2023/12/23 01:30:08;;;;;;;;;;;12.50;49.50;;;12.59;53.25;99810.69;5077765;28;20023;-34
2023/12/23 01:32:36;;;;;;;;;;;12.50;49.70;;;12.54;52.92;99816.84;5077021;28;19924;-32
2023/12/23 01:35:05;;;;;;;;;;;12.40;49.70;;;12.49;52.76;99823.91;5069129;28;19971;-32
2023/12/23 01:37:33;;;;;;;;;;;12.40;49.80;;;12.45;52.80;99821.78;5076688;28;20020;-33
2023/12/23 01:40:01;;;;;;;;;;;12.30;50.40;;;12.43;52.92;99822.34;5075593;28;19991;-34
2023/12/23 01:42:29;;;;;;;;;;;12.30;49.90;;;12.38;53.70;99813.41;5075815;28;19982;-34
2023/12/23 01:44:58;;;;;;;;;;;12.20;50.00;;;12.35;52.82;99828.13;5067640;28;20380;-33
2023/12/23 01:47:26;;;;;;;;;;;12.20;50.10;;;12.22;53.14;99815.84;5075725;28;19974;-33
2023/12/23 01:49:56;;;;;;;;;;;12.20;50.10;;;12.30;52.95;99834.28;5075520;28;20380;-34
2023/12/23 01:52:24;;;;;;;;;;;12.10;50.20;;;12.23;53.57;99827.69;5068379;28;19952;-35
2023/12/23 01:54:52;;;;;;;;;;;12.10;50.30;;;12.25;53.30;99840.41;5075938;28;20392;-34
2023/12/23 01:57:20;;;;;;;;;;;12.10;50.30;;;12.20;53.89;99831.50;5075252;28;19925;-32
2023/12/23 01:59:48;;;;;;;;;;;12.10;50.40;;;12.20;53.78;99837.41;5075748;28;19924;-35
2023/12/23 02:02:17;;;;;;;;;;;12.00;50.30;;;12.20;53.85;99834.00;5075481;28;19978;-34
2023/12/23 02:04:46;;;;;;;;;;;12.00;50.30;;;12.19;53.11;99839.75;5075377;28;19964;-33
2023/12/23 02:07:14;;;;;;;;;;;12.00;50.40;;;12.18;53.68;99830.41;5067352;28;19928;-33
2023/12/23 02:09:41;;;;;;;;;;;12.00;50.40;;;12.18;53.47;99828.81;5071534;28;20363;-34
2023/12/23 02:12:24;;;;;;;;;;;12.00;50.40;;;12.18;53.92;99822.88;5075880;28;19930;-33
2023/12/23 02:14:56;;;;;;;;;;;12.00;50.40;;;12.17;53.88;99811.03;5075941;28;20018;-35
2023/12/23 02:17:25;;;;;;;;;;;12.00;50.40;;;12.21;53.68;99818.19;5075054;28;19936;-34
2023/12/23 02:19:53;;;;;;;;;;;12.00;50.40;;;12.23;54.07;99806.69;5074797;28;19924;-35
2023/12/23 02:22:23;;;;;;;;;;;12.00;50.40;;;12.24;53.21;99808.50;5075632;28;19924;-36
2023/12/23 02:24:50;;;;;;;;;;;12.00;50.40;;;12.19;53.46;99789.50;5075064;28;19925;-33
2023/12/23 02:27:21;;;;;;;;;;;12.10;50.40;;;12.29;53.58;99807.38;5074759;28;20014;-33
2023/12/23 02:29:49;;;;;;;;;;;12.10;50.40;;;12.31;53.05;99806.81;5076915;28;19964;-34
2023/12/23 02:32:17;;;;;;;;;;;12.10;50.30;;;12.21;53.07;99778.88;5074995;28;19975;-33
2023/12/23 02:34:45;;;;;;;;;;;12.10;50.30;;;12.33;53.48;99794.44;5074587;28;19928;-34
2023/12/23 02:37:13;;;;;;;;;;;12.10;50.20;;;12.34;53.22;99801.22;5074312;28;20380;-35
2023/12/23 02:39:42;;;;;;;;;;;12.10;50.20;;;12.40;52.89;99791.84;5074205;28;19925;-40
2023/12/23 02:42:10;;;;;;;;;;;12.20;50.20;;;12.44;53.13;99799.00;5074769;28;19924;-35
2023/12/23 02:44:38;;;;;;;;;;;12.20;50.20;;;12.39;52.34;99769.97;5074970;28;19924;-37
2023/12/23 02:47:05;;;;;;;;;;;12.20;50.10;;;12.52;53.09;99788.13;5065413;28;20007;-33
2023/12/23 02:49:33;;;;;;;;;;;12.30;50.00;;;12.58;52.66;99778.78;5073570;28;20373;-32
2023/12/23 02:52:01;;;;;;;;;;;12.30;49.80;;;12.61;52.43;99776.59;5072929;28;19932;-32
2023/12/23 02:54:29;;;;;;;;;;;12.40;49.70;;;12.66;52.59;99772.94;5073294;28;19924;-33
2023/12/23 02:56:58;;;;;;;;;;;12.50;49.70;;;12.69;51.84;99778.31;5072593;28;19979;-33
2023/12/23 02:59:26;;;;;;;;;;;12.50;49.50;;;12.76;52.01;99759.75;5073085;28;19924;-35
2023/12/23 03:01:55;;;;;;;;;;;12.50;49.40;;;12.79;52.21;99755.94;5072970;28;20022;-35
2023/12/23 03:04:22;;;;;;;;;;;12.60;49.30;;;12.74;51.55;99752.03;5072917;28;20379;-35
2023/12/23 03:06:50;;;;;;;;;;;12.60;49.30;;;12.77;51.80;99762.41;5071955;28;20261;-36
2023/12/23 03:09:18;;;;;;;;;;;12.60;49.20;;;12.81;52.58;99754.47;5071723;28;20005;-36
2023/12/23 03:11:47;;;;;;;;;;;12.60;49.20;;;12.81;52.29;99749.44;5070301;28;20027;-34
2023/12/23 03:14:16;;;;;;;;;;;12.60;49.20;;;12.74;52.27;99752.03;5072821;28;20447;-34
2023/12/23 03:16:44;;;;;;;;;;;12.60;49.20;;;12.71;52.23;99750.84;5071818;28;19966;-33
2023/12/23 03:19:12;;;;;;;;;;;12.60;49.40;;;12.63;51.51;99741.56;5072725;28;19971;-34
2023/12/23 03:21:42;;;;;;;;;;;12.50;49.40;;;12.63;52.63;99759.16;5072950;28;19928;-35
2023/12/23 03:24:10;;;;;;;;;;;12.50;49.50;;;12.56;52.82;99760.13;5072826;28;20027;-36
2023/12/23 03:26:38;;;;;;;;;;;12.40;49.50;;;12.50;52.49;99759.47;5072699;28;19931;-34
2023/12/23 03:29:05;;;;;;;;;;;12.40;49.70;;;12.47;53.40;99755.00;5075405;28;19988;-32
2023/12/23 03:31:35;;;;;;;;;;;12.30;49.70;;;12.44;52.29;99749.66;5080599;28;19925;-34
2023/12/23 03:34:03;;;;;;;;;;;12.30;49.80;;;12.40;52.40;99751.63;5081506;28;19931;-32
2023/12/23 03:36:31;;;;;;;;;;;12.30;49.90;;;12.39;52.39;99744.88;5081793;28;19924;-34
2023/12/23 03:38:59;;;;;;;;;;;12.20;49.90;;;12.34;53.48;99740.94;5081718;28;19931;-36
2023/12/23 03:41:27;;;;;;;;;;;12.20;50.00;;;12.31;52.82;99726.44;5080391;28;19955;-37
2023/12/23 03:43:54;;;;;;;;;;;12.20;50.10;;;12.21;53.55;99720.25;5073477;28;19924;-34
2023/12/23 03:46:22;;;;;;;;;;;12.10;50.10;;;12.27;53.78;99734.34;5071764;28;19936;-32
2023/12/23 03:48:52;;;;;;;;;;;12.10;50.20;;;12.25;53.54;99719.88;5072400;28;19978;-34
2023/12/23 03:51:21;;;;;;;;;;;12.10;50.20;;;12.23;52.94;99722.19;5072503;28;20348;-33
2023/12/23 03:53:49;;;;;;;;;;;12.10;50.30;;;12.22;53.57;99724.53;5072427;28;19952;-34
2023/12/23 03:56:16;;;;;;;;;;;12.00;50.20;;;12.17;53.39;99706.47;5071623;28;19931;-34
2023/12/23 03:58:44;;;;;;;;;;;12.00;50.30;;;12.19;53.11;99719.19;5071912;28;19952;-33
2023/12/23 04:01:15;;;;;;;;;;;12.10;50.40;;;12.20;53.88;99715.97;5064169;28;19925;-34
2023/12/23 04:03:43;;;;;;;;;;;12.00;50.30;;;12.16;53.17;99699.66;5072859;28;19924;-37
2023/12/23 04:06:13;;;;;;;;;;;12.00;50.30;;;12.20;53.44;99695.88;5063478;28;20354;-36
2023/12/23 04:08:41;;;;;;;;;;;12.00;50.30;;;12.21;53.27;99700.16;5072173;28;19925;-33
2023/12/23 04:11:09;;;;;;;;;;;12.00;50.40;;;12.25;53.54;99699.78;5090054;22;19925;-35
2023/12/23 04:13:38;;;;;;;;;;;12.00;50.30;;;12.25;53.73;99692.25;5069719;28;19935;-35
2023/12/23 04:16:06;;;;;;;;;;;12.00;50.30;;;12.31;53.03;99680.34;5071558;28;19939;-35
2023/12/23 04:18:34;;;;;;;;;;;12.10;50.40;;;12.33;53.63;99678.91;5071985;28;19924;-34
2023/12/23 04:21:02;;;;;;;;;;;12.10;50.30;;;12.37;53.01;99675.97;5071844;28;19924;-35
2023/12/23 04:23:32;;;;;;;;;;;12.10;50.30;;;12.37;53.50;99665.91;5071910;28;19931;-35
2023/12/23 04:26:00;;;;;;;;;;;12.10;50.20;;;12.39;53.47;99667.00;5071098;28;20395;-35
2023/12/23 04:28:28;;;;;;;;;;;12.10;50.20;;;12.42;52.86;99659.75;5072015;28;20024;-35
2023/12/23 04:30:56;;;;;;;;;;;12.20;50.20;;;12.47;53.19;99653.59;5071717;28;19928;-35
2023/12/23 04:33:25;;;;;;;;;;;12.20;50.10;;;12.52;53.51;99642.41;5071845;28;19925;-35
2023/12/23 04:35:53;;;;;;;;;;;12.30;50.10;;;12.54;52.89;99640.97;5071592;28;19963;-35
2023/12/23 04:38:21;;;;;;;;;;;12.30;49.90;;;12.62;52.27;99629.22;5070900;28;20003;-35
2023/12/23 04:40:50;;;;;;;;;;;12.40;49.80;;;12.68;52.35;99625.72;5071741;28;19925;-34
2023/12/23 04:43:18;;;;;;;;;;;12.50;49.80;;;12.72;51.93;99617.75;5071410;28;19932;-37
2023/12/23 04:45:46;;;;;;;;;;;12.50;49.60;;;12.76;52.37;99608.94;5071709;28;20032;-35
2023/12/23 04:48:14;;;;;;;;;;;12.50;49.50;;;12.74;52.24;99606.25;5063006;28;19935;-35
2023/12/23 04:50:42;;;;;;;;;;;12.60;49.50;;;12.81;52.04;99598.63;5071329;28;19924;-35
2023/12/23 04:53:10;;;;;;;;;;;12.60;49.40;;;12.81;52.00;99588.56;5071413;28;19931;-35
2023/12/23 04:55:38;;;;;;;;;;;12.60;49.40;;;12.84;51.75;99583.84;5071810;28;20124;-35
2023/12/23 04:58:08;;;;;;;;;;;12.70;49.30;;;12.86;52.24;99584.00;5070891;28;19991;-35
2023/12/23 05:00:36;;;;;;;;;;;12.70;49.30;;;12.82;51.81;99572.78;5071532;28;19925;-37
2023/12/23 05:03:04;;;;;;;;;;;12.70;49.30;;;12.83;51.79;99572.03;5071352;28;20003;-35
2023/12/23 05:05:32;;;;;;;;;;;12.70;49.40;;;12.80;52.55;99561.66;5071321;28;19928;-36
2023/12/23 05:08:00;;;;;;;;;;;12.60;49.30;;;12.75;52.68;99551.84;5070652;28;20024;-35
2023/12/23 05:10:28;;;;;;;;;;;12.60;49.40;;;12.69;52.55;99552.13;5071275;28;19924;-35
2023/12/23 05:12:56;;;;;;;;;;;12.50;49.50;;;12.63;53.14;99536.41;5071090;28;19956;-35
2023/12/23 05:15:25;;;;;;;;;;;12.50;49.60;;;12.59;52.84;99541.81;5074265;28;19967;-35
2023/12/23 05:17:53;;;;;;;;;;;12.50;49.70;;;12.53;52.78;99528.63;5073972;28;19929;-35
2023/12/23 05:20:21;;;;;;;;;;;12.40;49.80;;;12.50;52.55;99528.31;5074905;28;20014;-35
2023/12/23 05:22:50;;;;;;;;;;;12.40;49.90;;;12.46;53.70;99527.09;5074678;28;19925;-35
2023/12/23 05:25:19;;;;;;;;;;;12.30;49.90;;;12.42;53.06;99519.09;5074674;28;19924;-35
2023/12/23 05:27:46;;;;;;;;;;;12.30;50.10;;;12.39;53.60;99516.28;5073931;28;19935;-35
2023/12/23 05:30:14;;;;;;;;;;;12.30;50.20;;;12.35;53.02;99509.13;5074221;28;20302;-35
2023/12/23 05:32:44;;;;;;;;;;;12.20;50.20;;;12.33;53.38;99503.06;5074245;28;20002;-35
2023/12/23 05:35:12;;;;;;;;;;;12.20;50.30;;;12.29;53.35;99486.78;5074444;28;19932;-35
2023/12/23 05:37:40;;;;;;;;;;;12.10;50.40;;;12.28;54.06;99499.16;5073899;28;19928;-35
2023/12/23 05:40:09;;;;;;;;;;;12.10;50.40;;;12.24;53.90;99487.03;5075163;28;19928;-35
2023/12/23 05:42:37;;;;;;;;;;;12.10;50.60;;;12.24;53.95;99492.06;5074715;28;20032;-35
2023/12/23 05:45:05;;;;;;;;;;;12.10;50.60;;;12.22;54.44;99483.47;5073902;28;20338;-35
2023/12/23 05:47:33;;;;;;;;;;;12.10;50.70;;;12.21;54.51;99477.53;5073757;28;19967;-35
2023/12/23 05:50:03;;;;;;;;;;;12.00;50.70;;;12.21;53.66;99479.16;5074230;28;19971;-35
2023/12/23 05:52:31;;;;;;;;;;;12.10;50.90;;;12.21;53.93;99471.63;5074098;28;19924;-35
2023/12/23 05:54:59;;;;;;;;;;;12.00;50.80;;;12.21;54.27;99466.59;5074163;28;19931;-35
2023/12/23 05:57:27;;;;;;;;;;;12.00;50.80;;;12.22;54.30;99474.31;5073319;28;19960;-35
2023/12/23 05:59:55;;;;;;;;;;;12.00;50.80;;;12.24;53.92;99461.91;5074049;28;19930;-35
2023/12/23 06:02:23;;;;;;;;;;;12.10;51.00;;;12.27;53.85;99462.22;5074115;28;19931;-35
2023/12/23 06:04:52;;;;;;;;;;;12.10;50.90;;;12.27;54.39;99463.13;5074480;28;19925;-35
2023/12/23 06:07:21;;;;;;;;;;;12.10;51.70;;;12.31;53.86;99459.31;5073305;28;19956;-36
2023/12/23 06:09:49;;;;;;;;;;;12.10;50.90;;;12.33;53.92;99456.22;5073754;28;19931;-35
2023/12/23 06:12:17;;;;;;;;;;;12.10;50.90;;;12.34;54.25;99459.63;5073481;28;20008;-36
2023/12/23 06:14:45;;;;;;;;;;;12.10;50.90;;;12.35;53.33;99448.84;5074579;28;19964;-35
2023/12/23 06:17:13;;;;;;;;;;;12.10;51.00;;;12.38;53.40;99446.66;5073849;28;19939;-36
2023/12/23 06:19:41;;;;;;;;;;;12.20;51.00;;;12.41;54.03;99441.94;5073755;28;19925;-36
2023/12/23 06:22:09;;;;;;;;;;;12.20;50.90;;;12.44;53.69;99443.16;5073457;28;19978;-36
2023/12/23 06:24:38;;;;;;;;;;;12.20;50.90;;;12.45;54.05;99444.06;5072965;28;20023;-35
2023/12/23 06:27:06;;;;;;;;;;;12.20;50.90;;;12.49;53.26;99441.13;5073094;28;19968;-36
2023/12/23 06:29:34;;;;;;;;;;;12.20;50.80;;;12.57;53.88;99435.25;5073557;28;20302;-36
2023/12/23 06:32:02;;;;;;;;;;;12.30;50.90;;;12.58;53.95;99436.16;5073208;28;20311;-36
2023/12/23 06:34:30;;;;;;;;;;;12.30;50.80;;;12.58;53.25;99432.03;5073338;28;19982;-35
2023/12/23 06:36:58;;;;;;;;;;;12.30;50.60;;;12.65;53.05;99434.41;5072590;28;20015;-36
2023/12/23 06:39:26;;;;;;;;;;;12.40;50.70;;;12.64;53.39;99427.63;5073437;28;20011;-36
2023/12/23 06:41:55;;;;;;;;;;;12.40;50.60;;;12.64;53.33;99415.06;5073174;28;19983;-36
2023/12/23 06:44:23;;;;;;;;;;;12.50;50.60;;;12.68;53.26;99418.75;5073182;28;19925;-36
2023/12/23 06:46:52;;;;;;;;;;;12.50;50.60;;;12.66;53.38;99411.06;5072577;28;20388;-36
2023/12/23 06:49:20;;;;;;;;;;;12.50;50.60;;;12.67;53.61;99412.84;5064900;28;19989;-36
2023/12/23 06:51:48;;;;;;;;;;;12.50;50.50;;;12.66;53.65;99401.00;5072908;28;19932;-36
2023/12/23 06:54:16;;;;;;;;;;;12.50;50.60;;;12.64;54.42;99400.00;5072904;28;19930;-36
2023/12/23 06:56:44;;;;;;;;;;;12.50;50.70;;;12.63;53.46;99390.66;5072294;28;20328;-36
2023/12/23 06:59:14;;;;;;;;;;;12.50;50.70;;;12.63;53.85;99390.66;5081015;28;20269;-35
2023/12/23 07:01:41;;;;;;;;;;;12.50;50.70;;;12.60;53.79;99385.31;5072731;28;19932;-36
2023/12/23 07:04:10;;;;;;;;;;;12.50;50.80;;;12.58;53.62;99369.22;5072582;28;19932;-36
2023/12/23 07:06:38;;;;;;;;;;;12.40;51.40;;;12.55;53.96;99383.97;5072355;28;19924;-36
2023/12/23 07:09:05;;;;;;;;;;;12.40;50.90;;;12.53;53.78;99377.88;5072723;28;20007;-36
2023/12/23 07:11:36;;;;;;;;;;;12.40;51.20;;;12.51;54.12;99386.00;5072366;28;19924;-36
2023/12/23 07:14:04;;;;;;;;;;;12.40;51.20;;;12.49;54.22;99378.31;5072250;28;20280;-35
2023/12/23 07:16:33;;;;;;;;;;;12.30;51.10;;;12.46;54.97;99395.56;5071721;28;20410;-36
2023/12/23 07:19:01;;;;;;;;;;;12.30;51.10;;;12.43;54.28;99385.22;5072507;28;20297;-36
2023/12/23 07:21:29;;;;;;;;;;;12.30;51.20;;;12.40;53.61;99392.44;5072496;28;19929;-36
2023/12/23 07:23:57;;;;;;;;;;;12.30;51.30;;;12.37;55.07;99397.16;5072519;28;19930;-36
2023/12/23 07:26:24;;;;;;;;;;;12.20;51.60;;;12.35;54.06;99403.63;5071877;28;19924;-36
2023/12/23 07:28:53;;;;;;;;;;;12.20;51.50;;;12.31;55.42;99394.03;5072258;28;19971;-35
2023/12/23 07:31:21;;;;;;;;;;;12.20;51.60;;;12.31;54.84;99399.03;5071880;28;19928;-36
2023/12/23 07:33:50;;;;;;;;;;;12.20;51.80;;;12.29;55.29;99390.44;5072366;28;19971;-36
2023/12/23 07:36:18;;;;;;;;;;;12.10;51.90;;;12.27;54.65;99409.47;5071165;28;19924;-36
2023/12/23 07:38:46;;;;;;;;;;;12.10;52.10;;;12.25;55.88;99395.91;5072199;28;20369;-36
2023/12/23 07:41:14;;;;;;;;;;;12.10;52.10;;;12.26;55.36;99400.19;5072001;28;19924;-36
2023/12/23 07:43:42;;;;;;;;;;;12.10;52.10;;;12.25;55.23;99400.94;5071946;28;19931;-36
2023/12/23 07:46:10;;;;;;;;;;;12.10;52.10;;;12.25;55.39;99403.44;5071772;28;20277;-35
2023/12/23 07:48:38;;;;;;;;;;;12.10;52.10;;;12.26;55.25;99405.22;5072467;28;20357;-36
2023/12/23 07:51:08;;;;;;;;;;;12.10;52.10;;;12.28;55.49;99413.78;5072608;28;19947;-36
2023/12/23 07:53:36;;;;;;;;;;;12.10;52.10;;;12.29;55.62;99413.06;5072482;28;20022;-36
2023/12/23 07:56:06;;;;;;;;;;;12.10;52.40;;;12.31;55.20;99409.09;5072811;28;19968;-36
2023/12/23 07:58:34;;;;;;;;;;;12.10;52.10;;;12.33;54.89;99402.63;5072771;28;19954;-35
2023/12/23 08:01:02;;;;;;;;;;;12.10;52.20;;;12.33;55.57;99407.63;5072384;28;19978;-36
2023/12/23 08:03:31;;;;;;;;;;;12.10;52.30;;;12.38;54.83;99414.00;5072521;28;19932;-35
2023/12/23 08:05:58;;;;;;;;;;;12.10;52.10;;;12.39;54.85;99413.28;5072370;28;19924;-36
2023/12/23 08:08:28;;;;;;;;;;;12.20;52.00;;;12.39;55.71;99403.25;5073738;28;19925;-35
2023/12/23 08:10:57;;;;;;;;;;;12.20;52.00;;;12.39;55.03;99398.22;5072140;28;20378;-36
2023/12/23 08:13:25;;;;;;;;;;;12.20;52.10;;;12.41;55.41;99401.75;5064253;28;19924;-36
2023/12/23 08:15:53;;;;;;;;;;;12.20;52.00;;;12.43;55.44;99415.38;5072242;28;19970;-36
2023/12/23 08:18:21;;;;;;;;;;;12.20;51.90;;;12.47;55.05;99417.44;5071536;28;19978;-36
2023/12/23 08:20:49;;;;;;;;;;;12.20;51.90;;;12.50;54.57;99412.75;5072733;28;19924;-36
2023/12/23 08:23:17;;;;;;;;;;;12.30;51.80;;;12.53;54.59;99413.06;5071872;28;19925;-36
2023/12/23 08:25:47;;;;;;;;;;;12.30;51.80;;;12.58;54.06;99411.03;5071956;28;19935;-36
2023/12/23 08:28:15;;;;;;;;;;;12.30;51.50;;;12.62;54.26;99414.00;5071411;28;19994;-36
2023/12/23 08:30:43;;;;;;;;;;;12.40;51.50;;;12.63;54.49;99418.31;5071786;28;20014;-36
2023/12/23 08:33:11;;;;;;;;;;;12.40;51.40;;;12.67;54.39;99427.91;5071410;28;19931;-36
2023/12/23 08:35:39;;;;;;;;;;;12.50;51.30;;;12.71;54.20;99424.97;5071604;28;20015;-35
2023/12/23 08:38:09;;;;;;;;;;;12.50;51.40;;;12.75;53.93;99421.16;5071281;28;19951;-36
2023/12/23 08:40:38;;;;;;;;;;;12.60;51.20;;;12.77;54.73;99419.72;5071686;28;20380;-36
2023/12/23 08:43:07;;;;;;;;;;;12.60;51.20;;;12.79;54.08;99424.13;5072012;28;19978;-35
2023/12/23 08:45:35;;;;;;;;;;;12.60;51.10;;;12.80;53.67;99425.91;5072435;28;19925;-36
2023/12/23 08:48:03;;;;;;;;;;;12.60;51.20;;;12.79;54.16;99434.19;5072151;28;19951;-35
2023/12/23 08:50:31;;;;;;;;;;;12.60;51.10;;;12.76;54.11;99428.88;5075213;28;19931;-36
2023/12/23 08:52:59;;;;;;;;;;;12.60;51.10;;;12.72;54.63;99416.72;5075742;28;19925;-35
2023/12/23 08:55:27;;;;;;;;;;;12.60;51.20;;;12.70;54.59;99423.22;5067424;28;20372;-37
2023/12/23 08:57:55;;;;;;;;;;;12.50;51.20;;;12.66;55.04;99436.19;5075040;28;19963;-36
2023/12/23 09:00:24;;;;;;;;;;;12.50;51.40;;;12.61;55.05;99422.28;5075394;28;19931;-36
2023/12/23 09:02:52;;;;;;;;;;;12.50;51.50;;;12.57;54.93;99430.25;5075187;28;19924;-37
2023/12/23 09:05:20;;;;;;;;;;;12.40;51.50;;;12.54;54.39;99434.94;5075422;28;19924;-36
2023/12/23 09:07:48;;;;;;;;;;;12.40;51.60;;;12.52;55.01;99415.44;5074005;28;20033;-36
2023/12/23 09:10:17;;;;;;;;;;;12.40;51.60;;;12.49;54.73;99438.59;5074809;28;19924;-36
2023/12/23 09:12:45;;;;;;;;;;;12.30;51.70;;;12.45;55.05;99444.94;5074455;28;19924;-36
2023/12/23 09:15:13;;;;;;;;;;;12.30;52.00;;;12.35;54.72;99432.16;5074612;28;20361;-36
2023/12/23 09:17:42;;;;;;;;;;;12.30;52.00;;;12.40;55.04;99445.19;5074383;28;19956;-36
2023/12/23 09:20:11;;;;;;;;;;;12.30;52.10;;;12.38;55.86;99441.66;5074625;28;20289;-35
2023/12/23 09:22:39;;;;;;;;;;;12.20;52.10;;;12.37;55.26;99444.88;5074732;28;19931;-36
2023/12/23 09:25:07;;;;;;;;;;;12.20;52.50;;;12.35;54.95;99436.28;5074675;28;19964;-41
2023/12/23 09:27:35;;;;;;;;;;;12.20;52.40;;;12.32;55.08;99448.56;5074034;28;19928;-36
2023/12/23 09:30:04;;;;;;;;;;;12.20;52.60;;;12.32;55.81;99456.09;5074338;28;19924;-36
2023/12/23 09:32:32;;;;;;;;;;;12.10;52.70;;;12.31;55.55;99461.81;5074541;28;20388;-35
2023/12/23 09:35:01;;;;;;;;;;;12.10;52.50;;;12.31;56.28;99459.31;5074627;28;19929;-35
2023/12/23 09:37:33;;;;;;;;;;;12.10;52.70;;;12.30;55.62;99462.56;5066487;28;19973;-36
2023/12/23 09:40:02;;;;;;;;;;;12.10;52.60;;;12.30;56.80;99457.53;5074635;28;19928;-35
2023/12/23 09:42:29;;;;;;;;;;;12.10;52.70;;;12.30;55.29;99462.56;5066613;28;20022;-36
2023/12/23 09:44:57;;;;;;;;;;;12.10;52.80;;;12.31;56.38;99469.38;5075149;28;19925;-37
2023/12/23 09:47:26;;;;;;;;;;;12.10;52.90;;;12.32;55.63;99461.09;5074746;28;19947;-35
2023/12/23 09:49:54;;;;;;;;;;;12.10;53.40;;;12.34;55.81;99474.69;5074212;28;20383;-36
2023/12/23 09:52:23;;;;;;;;;;;12.10;52.60;;;12.34;55.93;99465.53;5074129;28;19935;-36
2023/12/23 09:54:53;;;;;;;;;;;12.10;52.80;;;12.37;55.30;99475.91;5074127;28;20017;-37
2023/12/23 09:57:21;;;;;;;;;;;12.20;52.70;;;12.36;56.03;99465.69;5073403;28;20404;-36
2023/12/23 09:59:50;;;;;;;;;;;12.20;52.90;;;12.40;56.02;99470.31;5073482;28;19971;-36
2023/12/23 10:02:18;;;;;;;;;;;12.20;52.60;;;12.42;55.59;99483.91;5074202;28;20003;-37
2023/12/23 10:04:46;;;;;;;;;;;12.20;52.40;;;12.44;55.33;99482.47;5074024;28;19925;-36
2023/12/23 10:07:15;;;;;;;;;;;12.20;52.40;;;12.46;55.28;99486.00;5073367;28;19924;-36
2023/12/23 10:09:44;;;;;;;;;;;12.20;52.40;;;12.47;55.75;99480.25;5073714;28;20452;-36
2023/12/23 10:12:12;;;;;;;;;;;12.30;52.50;;;12.51;55.41;99484.88;5073599;28;19928;-36
2023/12/23 10:14:41;;;;;;;;;;;12.30;52.40;;;12.56;54.71;99492.88;5074096;28;20019;-36
2023/12/23 10:17:09;;;;;;;;;;;12.30;52.10;;;12.59;55.43;99485.66;5073081;28;19924;-36
2023/12/23 10:19:37;;;;;;;;;;;12.40;52.00;;;12.62;55.48;99483.47;5073819;28;19978;-36
2023/12/23 10:22:05;;;;;;;;;;;12.40;52.00;;;12.66;54.96;99496.50;5073463;28;19971;-36
2023/12/23 10:24:36;;;;;;;;;;;12.50;52.00;;;12.68;54.82;99479.06;5065942;28;20042;-36
2023/12/23 10:27:06;;;;;;;;;;;12.50;52.10;;;12.72;54.55;99487.06;5073203;28;19937;-36
2023/12/23 10:29:34;;;;;;;;;;;12.50;51.80;;;12.75;55.15;99487.41;5073925;28;20014;-36
2023/12/23 10:32:04;;;;;;;;;;;12.60;52.00;;;12.80;55.14;99501.31;5073560;28;19928;-35
2023/12/23 10:34:35;;;;;;;;;;;12.60;52.00;;;12.81;54.66;99492.16;5064954;28;20606;-36
2023/12/23 10:37:03;;;;;;;;;;;12.60;51.70;;;12.80;54.15;99500.44;5072677;28;19978;-36
2023/12/23 10:39:32;;;;;;;;;;;12.60;51.60;;;12.80;53.86;99491.28;5073513;28;19967;-36
2023/12/23 10:42:02;;;;;;;;;;;12.60;51.50;;;12.78;54.62;99495.25;5073283;28;20011;-36
2023/12/23 10:44:32;;;;;;;;;;;12.60;51.60;;;12.75;54.21;99507.50;5073013;28;19954;-36
2023/12/23 10:47:00;;;;;;;;;;;12.60;51.50;;;12.70;54.99;99503.66;5072705;28;19967;-36
2023/12/23 10:49:28;;;;;;;;;;;12.60;51.60;;;12.66;54.84;99506.56;5073728;28;19974;-36
2023/12/23 10:51:56;;;;;;;;;;;12.50;51.70;;;12.64;54.59;99508.03;5073746;28;20349;-36
2023/12/23 10:54:27;;;;;;;;;;;12.50;51.70;;;12.62;54.30;99509.50;5073176;28;20011;-36
2023/12/23 10:56:56;;;;;;;;;;;12.50;51.90;;;12.60;55.48;99510.94;5072755;28;19994;-36
2023/12/23 10:59:24;;;;;;;;;;;12.40;52.10;;;12.57;54.75;99505.63;5073000;28;19970;-36
2023/12/23 11:01:53;;;;;;;;;;;12.40;52.00;;;12.53;55.01;99511.03;5072877;28;20406;-36
2023/12/23 11:04:21;;;;;;;;;;;12.40;52.10;;;12.50;55.21;99508.22;5073023;28;20392;-36
2023/12/23 11:06:49;;;;;;;;;;;12.30;52.00;;;12.48;55.09;99515.59;5072599;28;19966;-35
2023/12/23 11:09:17;;;;;;;;;;;12.30;52.20;;;12.46;55.23;99516.16;5072848;28;20424;-35
2023/12/23 11:11:45;;;;;;;;;;;12.30;52.30;;;12.44;55.85;99521.03;5072614;28;19924;-36
2023/12/23 11:14:14;;;;;;;;;;;12.30;52.60;;;12.41;55.69;99512.28;5072459;28;19968;-35
2023/12/23 11:16:43;;;;;;;;;;;12.30;52.80;;;12.40;56.34;99525.56;5072262;28;19924;-35
2023/12/23 11:19:12;;;;;;;;;;;12.20;52.40;;;12.39;55.42;99528.84;5073580;28;19924;-36
2023/12/23 11:21:40;;;;;;;;;;;12.20;52.50;;;12.38;56.15;99532.06;5072952;28;19924;-36